Latest Weather Observations for Albury

IDN60801

Issued at 10:35 am EDT Thursday 23 October 2014 (issued every 30 minutes, with the page automatically refreshed every 10 minutes)

About weather observations | Map of weather stations | Latest weather observations for NSW | Other Formats
Station Details ID: 072160 Name: ALBURY AIRPORT AWS Lat: -36.07 Lon: 146.95 Height: 163.5 m
Data from the previous 72 hours. | See also: Recent months at Albury
Date/Time
EDT
Temp
°C
App
Temp
°C
Dew
Point
Rel
Hum
%
Delta-T
°C
Wind Press
QNH
hPa
Press
MSL
hPa
Rain
since 9 am
mm
Dir
 
Spd
km/h
Gust
km/h
Spd
kts
Gust
kts
23/10:30am 24.6 24.8 15.8 58 5.4 SE 9 15 5 8 1017.6 1017.4 0.0
23/10:00am 23.1 23.2 15.4 62 4.6 SSE 9 13 5 7 1017.7 1017.5 0.0
23/09:30am 22.4 22.9 15.5 65 4.2 ESE 7 13 4 7 1017.8 1017.6 0.0
23/09:00am 20.3 21.4 14.7 70 3.3 S 2 9 1 5 1017.8 1017.6 0.0
23/08:30am 19.9 19.9 14.3 70 3.3 SE 7 11 4 6 1017.8 1017.6 0.0
23/08:00am 18.5 18.5 13.6 73 2.8 SE 6 9 3 5 1017.7 1017.5 0.0
23/07:30am 16.6 17.6 14.2 86 1.4 NW 2 7 1 4 1017.7 1017.5 0.0
23/07:00am 15.5 16.5 13.3 87 1.2 CALM 0 0 0 0 1017.5 1017.3 0.0
23/06:30am 14.9 15.9 13.1 89 1.0 CALM 0 0 0 0 1017.2 1017.0 0.0
23/06:00am 15.3 15.0 12.8 85 1.4 ESE 6 7 3 4 1016.9 1016.7 0.0
23/05:30am 16.9 17.7 13.6 81 1.9 NE 2 6 1 3 1016.8 1016.6 0.0
23/05:00am 15.8 16.1 13.3 85 1.4 WSW 4 7 2 4 1016.8 1016.6 0.0
23/04:30am 17.5 17.8 14.4 82 1.8 NNE 6 6 3 3 1016.4 1016.2 0.0
23/04:00am 17.8 17.9 13.9 78 2.2 SE 6 7 3 4 1016.5 1016.3 0.0
23/03:30am 18.4 17.8 14.7 79 2.2 SSE 11 19 6 10 1016.7 1016.5 0.0
23/03:00am 18.6 18.0 14.7 78 2.3 E 11 15 6 8 1016.6 1016.4 0.0
23/02:30am 18.7 18.5 14.8 78 2.3 ESE 9 11 5 6 1017.3 1017.1 0.0
23/02:00am 18.7 18.1 14.6 77 2.4 E 11 15 6 8 1017.8 1017.6 0.0
23/01:30am 19.1 19.3 14.6 75 2.6 WNW 7 9 4 5 1018.4 1018.3 0.0
23/01:00am 19.0 18.9 14.9 77 2.4 WNW 9 17 5 9 1018.2 1018.1 0.0
23/12:30am 17.7 17.5 14.8 83 1.7 SSE 9 13 5 7 1017.4 1017.2 0.0
23/12:00am 18.1 19.1 14.2 78 2.3 NNE 2 11 1 6 1017.4 1017.2 0.0
 
Date/Time
EDT
Temp
°C
App
Temp
°C
Dew
Point
Rel
Hum
%
Delta-T
°C
Wind Press
QNH
hPa
Press
MSL
hPa
Rain
since 9 am
mm
Dir
 
Spd
km/h
Gust
km/h
Spd
kts
Gust
kts
22/11:30pm 17.7 19.0 14.0 79 2.1 NE 0 0 0 0 1018.1 1018.0 0.0
22/11:00pm 19.0 20.1 14.7 76 2.5 ESE 2 6 1 3 1018.2 1018.1 0.0
22/10:30pm 19.7 21.4 15.1 75 2.7 CALM 0 6 0 3 1018.2 1018.1 0.0
22/10:00pm 19.8 21.0 15.0 74 2.8 E 2 6 1 3 1018.1 1018.0 0.0
22/09:30pm 20.7 21.0 14.4 67 3.7 ESE 6 7 3 4 1018.0 1017.9 0.0
22/09:00pm 20.7 22.0 14.1 66 3.8 CALM 0 0 0 0 1018.1 1018.0 0.0
22/08:30pm 21.5 22.8 14.2 63 4.3 CALM 0 0 0 0 1017.4 1017.2 0.0
22/08:00pm 22.3 22.4 13.9 59 4.9 E 6 7 3 4 1017.2 1017.0 0.0
22/07:30pm 24.4 24.0 14.2 53 6.1 SSE 9 11 5 6 1017.0 1016.8 0.0
22/07:00pm 25.8 25.6 14.6 50 6.7 SE 9 13 5 7 1016.9 1016.7 0.0
22/06:30pm 26.9 26.7 14.6 46 7.4 SE 9 13 5 7 1016.8 1016.6 0.0
22/06:00pm 27.2 26.1 14.2 44 7.8 SSE 13 15 7 8 1017.0 1016.8 0.0
22/05:30pm 27.5 25.9 13.8 43 8.2 SSE 15 19 8 10 1017.1 1016.9 0.0
22/05:00pm 28.2 27.3 14.8 44 8.2 SE 13 19 7 10 1017.3 1017.1 0.0
22/04:30pm 28.1 27.5 13.6 41 8.7 SE 9 15 5 8 1017.6 1017.4 0.0
22/04:00pm 28.3 27.2 11.8 36 9.6 N 9 15 5 8 1017.9 1017.7 0.0
22/03:30pm 28.1 26.9 11.6 36 9.6 N 9 15 5 8 1018.2 1018.1 0.0
22/03:00pm 27.4 26.5 13.7 43 8.2 NE 11 20 6 11 1018.8 1018.7 0.0
22/02:30pm 27.1 26.5 13.4 42 8.1 NE 9 17 5 9 1019.2 1019.1 0.0
22/02:00pm 26.5 25.5 13.3 44 7.8 N 11 19 6 10 1019.8 1019.7 0.0
22/01:30pm 26.0 23.7 14.1 47 7.1 NNE 19 22 10 12 1020.3 1020.2 0.0
22/01:00pm 25.3 23.1 12.2 44 7.5 ENE 15 24 8 13 1020.6 1020.5 0.0
22/12:30pm 25.3 23.4 12.9 46 7.2 ENE 15 22 8 12 1021.1 1021.0 0.0
22/12:00pm 24.1 22.7 13.3 51 6.3 ENE 13 24 7 13 1021.8 1021.7 0.0
22/11:30am 23.7 22.0 13.6 53 5.9 ENE 15 22 8 12 1022.4 1022.2 0.0
22/11:00am 22.8 21.2 12.7 53 5.8 ENE 13 24 7 13 1022.8 1022.6 0.0
22/10:30am 20.6 19.3 13.8 65 3.9 SE 13 19 7 10 1023.3 1023.2 0.0
22/10:00am 19.6 18.7 13.8 69 3.3 SE 11 17 6 9 1023.7 1023.6 0.0
22/09:30am 18.6 17.8 13.9 74 2.7 ESE 11 13 6 7 1023.9 1023.8 0.0
22/09:00am 17.0 16.1 12.7 76 2.4 SE 9 13 5 7 1024.0 1023.9 0.0
22/08:30am 15.7 15.0 11.9 78 2.1 ESE 7 9 4 5 1024.1 1024.0 0.0
22/08:00am 14.5 14.2 11.3 81 1.7 ESE 4 6 2 3 1024.1 1024.0 0.0
22/07:56am 14.3 13.6 11.5 83 1.5 ESE 6 7 3 4 1024.0 1023.9 0.0
22/07:46am 13.8 13.0 11.1 84 1.4 SSE 6 7 3 4 1024.0 1023.9 0.0
22/07:30am 13.1 13.1 11.2 88 1.0 SSE 2 7 1 4 1024.0 1023.9 0.0
22/07:12am 12.0 12.2 10.6 91 0.7 CALM 0 0 0 0 1023.9 1023.8 0.0
22/07:00am 11.9 12.1 10.6 92 0.7 CALM 0 0 0 0 1023.8 1023.7 0.0
22/06:41am 11.2 11.2 9.9 92 0.7 CALM 0 0 0 0 1023.7 1023.6 0.0
22/06:30am 11.1 11.1 9.9 92 0.6 CALM 0 0 0 0 1023.6 1023.5 0.0
22/06:00am 10.8 10.7 9.6 92 0.6 CALM 0 0 0 0 1023.2 1023.1 0.0
22/05:58am 10.8 10.7 9.6 92 0.6 CALM 0 0 0 0 1023.2 1023.1 0.0
22/05:47am 11.0 11.0 9.9 93 0.6 CALM 0 0 0 0 1023.1 1022.9 0.0
22/05:30am 11.6 11.9 11.0 96 0.3 CALM 0 0 0 0 1022.9 1022.7 0.0
22/05:00am 11.2 11.3 10.3 94 0.5 CALM 0 0 0 0 1022.5 1022.3 0.0
22/04:30am 11.4 11.5 10.0 91 0.7 CALM 0 0 0 0 1022.4 1022.2 0.0
22/04:00am 11.8 12.0 10.7 93 0.6 CALM 0 0 0 0 1022.6 1022.4 0.0
22/03:42am 12.0 11.8 10.6 91 0.7 SSE 2 6 1 3 1022.7 1022.5 0.0
22/03:30am 11.8 11.1 10.2 90 0.8 SSE 4 7 2 4 1022.9 1022.7 0.0
22/03:23am 12.2 12.5 10.9 92 0.7 CALM 0 0 0 0 1022.9 1022.7 0.0
22/03:00am 12.4 11.5 10.6 89 0.9 ESE 6 7 3 4 1023.1 1022.9 0.0
22/02:30am 12.6 12.2 11.0 90 0.8 E 4 7 2 4 1023.4 1023.3 0.0
22/02:00am 12.9 12.0 10.8 87 1.1 E 6 7 3 4 1023.6 1023.5 0.0
22/01:30am 14.0 13.3 11.3 84 1.4 SE 6 7 3 4 1024.1 1024.0 0.0
22/01:00am 14.1 13.4 11.3 83 1.5 SE 6 6 3 3 1024.4 1024.3 0.0
22/12:30am 14.1 13.2 10.5 79 1.9 E 6 7 3 4 1024.6 1024.5 0.0
22/12:08am 15.3 14.1 11.5 78 2.1 SSE 9 11 5 6 1024.7 1024.6 0.0
22/12:00am 15.8 14.6 11.6 76 2.3 SSE 9 11 5 6 1024.8 1024.7 0.0
 
Date/Time
EDT
Temp
°C
App
Temp
°C
Dew
Point
Rel
Hum
%
Delta-T
°C
Wind Press
QNH
hPa
Press
MSL
hPa
Rain
since 9 am
mm
Dir
 
Spd
km/h
Gust
km/h
Spd
kts
Gust
kts
21/11:56pm 15.9 14.7 11.5 75 2.4 SSE 9 11 5 6 1024.7 1024.6 0.0
21/11:55pm 15.7 14.4 11.3 75 2.4 SSE 9 11 5 6 1024.7 1024.6 0.0
21/11:38pm 15.4 14.3 10.8 74 2.5 SE 7 9 4 5 1024.8 1024.7 0.0
21/11:30pm 16.0 15.0 10.3 69 3.0 ESE 6 7 3 4 1024.8 1024.7 0.0
21/11:00pm 17.5 16.5 11.1 66 3.5 ESE 7 11 4 6 1024.8 1024.7 0.0
21/10:30pm 17.9 16.2 11.2 65 3.7 ENE 11 13 6 7 1024.7 1024.6 0.0
21/10:00pm 18.3 17.0 11.1 63 3.9 E 9 13 5 7 1024.9 1024.8 0.0
21/09:30pm 18.4 17.5 11.2 63 3.9 ESE 7 9 4 5 1024.6 1024.5 0.0
21/09:00pm 20.2 17.4 11.4 57 4.9 NE 17 20 9 11 1024.3 1024.2 0.0
21/08:30pm 20.2 18.0 10.9 55 5.1 NE 13 15 7 8 1024.1 1024.0 0.0
21/08:00pm 21.4 20.0 10.9 51 5.8 NE 9 11 5 6 1024.0 1023.9 0.0
21/07:30pm 22.4 21.0 10.9 48 6.4 NE 9 11 5 6 1023.7 1023.6 0.0
21/07:00pm 23.8 22.0 10.8 44 7.2 NE 11 13 6 7 1023.5 1023.4 0.0
21/06:30pm 25.0 22.6 10.1 39 8.3 NE 13 19 7 10 1023.6 1023.5 0.0
21/06:00pm 25.3 23.8 10.4 39 8.3 NE 9 17 5 9 1023.6 1023.5 0.0
21/05:30pm 25.6 22.6 10.6 39 8.4 NE 17 20 9 11 1023.5 1023.4 0.0
21/05:00pm 25.8 24.5 11.2 40 8.3 E 9 17 5 9 1023.6 1023.5 0.0
21/04:30pm 25.8 24.1 11.2 40 8.3 NNE 11 15 6 8 1023.8 1023.7 0.0
21/04:00pm 25.8 24.1 11.2 40 8.3 ENE 11 19 6 10 1024.0 1023.9 0.0
21/03:30pm 25.7 25.0 11.5 41 8.1 NW 6 13 3 7 1024.4 1024.3 0.0
21/03:00pm 25.9 25.2 12.0 42 8.0 NE 7 15 4 8 1024.8 1024.7 0.0
21/02:30pm 24.9 23.7 11.5 43 7.6 NE 9 15 5 8 1025.2 1025.1 0.0
21/02:00pm 24.6 22.5 11.2 43 7.5 NNE 13 20 7 11 1025.8 1025.7 0.0
21/01:30pm 24.0 21.9 11.0 44 7.3 NE 13 20 7 11 1026.2 1026.1 0.0
21/01:00pm 23.9 22.2 12.5 49 6.5 ENE 13 17 7 9 1026.6 1026.5 0.0
21/12:30pm 22.5 20.4 11.3 49 6.3 NE 13 19 7 10 1027.0 1026.9 0.0
21/12:00pm 22.2 20.5 11.3 50 6.1 NNE 11 19 6 10 1027.4 1027.3 0.0
21/11:30am 21.1 18.2 9.7 48 6.2 NE 15 22 8 12 1027.8 1027.7 0.0
21/11:00am 20.8 18.8 11.4 55 5.2 ESE 13 17 7 9 1028.1 1028.0 0.0
21/10:30am 18.9 17.1 11.0 60 4.3 SSE 11 15 6 8 1028.2 1028.1 0.0
21/10:00am 18.1 16.7 11.0 63 3.8 SE 9 13 5 7 1028.3 1028.3 0.0
21/09:30am 17.4 15.9 10.5 64 3.7 SE 9 13 5 7 1028.3 1028.3 0.0
21/09:00am 16.2 14.7 10.5 69 3.0 SE 9 13 5 7 1028.3 1028.3 0.0
21/08:30am 14.9 13.3 10.3 74 2.4 SE 9 11 5 6 1028.2 1028.1 0.0
21/08:00am 13.3 12.1 9.4 77 2.0 SSE 6 7 3 4 1028.0 1027.9 0.0
21/07:30am 12.0 10.8 9.6 85 1.2 S 6 7 3 4 1027.7 1027.6 0.0
21/07:00am 10.2 9.9 8.8 91 0.7 CALM 0 0 0 0 1027.4 1027.3 0.0
21/06:30am 9.7 9.3 8.1 90 0.8 CALM 0 0 0 0 1027.0 1026.9 0.0
21/06:00am 10.7 9.2 9.1 90 0.8 S 7 9 4 5 1026.7 1026.6 0.0
21/05:30am 11.4 10.0 9.5 88 1.0 E 7 7 4 4 1026.5 1026.4 0.0
21/05:00am 10.7 9.1 8.1 84 1.3 ESE 6 7 3 4 1026.5 1026.4 0.0
21/04:30am 10.7 9.1 8.6 87 1.0 SSE 7 9 4 5 1026.3 1026.2 0.0
21/04:00am 11.8 10.4 9.0 83 1.4 E 6 7 3 4 1026.3 1026.2 0.0
21/03:30am 11.6 10.0 8.8 83 1.4 E 7 11 4 6 1026.3 1026.2 0.0
21/03:00am 11.7 9.4 8.9 83 1.4 ENE 11 13 6 7 1026.3 1026.2 0.0
21/02:40am 11.8 10.3 8.6 81 1.6 E 6 9 3 5 1026.3 1026.2 0.0
21/02:30am 12.6 11.3 9.1 79 1.8 ESE 6 9 3 5 1026.2 1026.1 0.0
21/02:21am 12.8 12.3 9.4 80 1.7 E 2 7 1 4 1026.2 1026.1 0.0
21/02:00am 12.6 12.5 9.4 81 1.6 CALM 0 0 0 0 1026.2 1026.1 0.0
21/01:30am 13.0 12.8 9.1 77 2.0 CALM 0 0 0 0 1026.3 1026.2 0.0
21/01:00am 14.6 14.5 9.6 72 2.6 CALM 0 6 0 3 1026.3 1026.2 0.0
21/12:30am 15.5 15.0 9.4 67 3.2 ENE 2 7 1 4 1026.1 1026.0 0.0
21/12:00am 15.4 15.3 9.5 68 3.1 CALM 0 0 0 0 1026.1 1026.0 0.0
 
Date/Time
EDT
Temp
°C
App
Temp
°C
Dew
Point
Rel
Hum
%
Delta-T
°C
Wind Press
QNH
hPa
Press
MSL
hPa
Rain
since 9 am
mm
Dir
 
Spd
km/h
Gust
km/h
Spd
kts
Gust
kts
20/11:30pm 15.1 13.7 8.8 66 3.2 E 6 9 3 5 1025.9 1025.8 0.0
20/11:00pm 17.3 15.6 10.0 62 3.9 ESE 9 15 5 8 1025.7 1025.6 0.0
20/10:30pm 16.2 14.4 9.4 64 3.6 E 9 11 5 6 1025.5 1025.4 0.0
20/10:00pm 17.7 15.6 9.6 59 4.3 ESE 11 15 6 8 1025.1 1025.0 0.0
20/09:30pm 18.3 18.2 10.7 61 4.1 SE 2 6 1 3 1024.7 1024.6 0.0
20/09:00pm 20.1 19.1 11.1 56 4.9 SE 7 13 4 7 1024.2 1024.1 0.0
20/08:30pm 21.5 20.5 10.9 51 5.9 ESE 7 11 4 6 1023.7 1023.6 0.0
20/08:00pm 22.3 20.7 11.4 50 6.1 ESE 11 17 6 9 1023.1 1022.9 0.0
20/07:30pm 23.1 21.9 11.5 48 6.5 SSE 9 11 5 6 1022.7 1022.5 0.0
20/07:00pm 25.0 24.2 11.6 43 7.6 SSE 7 11 4 6 1022.3 1022.1 0.0
20/06:30pm 25.8 24.5 11.2 40 8.3 SE 9 13 5 7 1022.0 1021.9 0.0
20/06:00pm 26.3 24.1 10.9 38 8.7 SE 13 17 7 9 1021.9 1021.8 0.0
20/05:30pm 26.8 25.2 11.7 39 8.7 ESE 11 17 6 9 1021.9 1021.8 0.0
20/05:00pm 26.4 24.0 10.1 36 9.1 ESE 13 15 7 8 1021.9 1021.8 0.0
20/04:30pm 26.3 24.5 10.9 38 8.7 SE 11 15 6 8 1022.0 1021.9 0.0
20/04:00pm 26.3 24.6 11.2 38 8.6 ESE 11 15 6 8 1022.2 1022.0 0.0
20/03:30pm 26.0 23.6 10.2 37 8.9 ESE 13 17 7 9 1022.4 1022.2 0.0
20/03:00pm 25.6 23.6 10.2 38 8.6 SSE 11 15 6 8 1022.8 1022.6 0.0
20/02:30pm 25.6 24.7 10.6 39 8.4 SSE 6 15 3 8 1023.3 1023.2 0.0
20/02:00pm 24.9 22.9 11.5 43 7.6 SSE 13 19 7 10 1023.8 1023.7 0.0
20/01:30pm 24.0 21.2 11.3 45 7.2 SSE 17 22 9 12 1024.1 1024.0 0.0
20/01:00pm 23.3 19.9 10.4 44 7.1 SSE 19 26 10 14 1024.3 1024.2 0.0
20/12:30pm 23.1 19.8 10.9 46 6.8 SSE 19 26 10 14 1024.6 1024.5 0.0
20/12:00pm 22.5 18.9 10.6 47 6.6 SSE 20 26 11 14 1024.9 1024.8 0.0
20/11:30am 21.9 18.4 11.0 50 6.1 SSE 20 28 11 15 1025.2 1025.1 0.0
20/11:00am 21.2 17.8 10.7 51 5.8 SE 19 26 10 14 1025.3 1025.2 0.0

Other Formats:

Comma delimited format used in spreadsheet applications
http://www.bom.gov.au/fwo/IDN60801/IDN60801.95896.axf

JavaScript Object Notation format (JSON) in row-major order
http://www.bom.gov.au/fwo/IDN60801/IDN60801.95896.json